Ocean Park, ME

1:46 AM EST on November 27, 2014 (GMT -0500)
Saco Bay | Change Station
CLOSE
Current Station
Personal Weather Station
Location: Saco, ME
Elevation: 16 ft
Nearby Weather Stations
Active Advisory: Winter Storm Warning Active Notice: Public Information Statement

Elev 16 ft 43.49 °N, 70.39 °W | Updated 13 minutes ago

Snow
Snow
31.8 °F
Feels Like 32 °F
N
0.0
Wind Variable Wind from NE

Today
High -- | Low -- °F
--% Chance of Precip.
Yesterday
High -- | Low -- °F
Precip. -- in
6:50 AM 4:08 PM
Waxing Crescent, 26% visible
Pressure 29.72 in
Visibility 1.5 miles
Clouds Scattered Clouds 800 ft
Overcast 1400 ft
Windchill 32 °F
Dew Point 29 °F
Humidity 89%
Rainfall 0.00 in
Snow Depth Not available.
UV 0 out of 12
Pollen .10 out of 12
Air Quality Not available.
Flu Activity Not available.
SPECI KPWM 270632Z 35013G23KT 1 1/2SM -SN BR SCT008 OVC014 01/M01 A2972 RMK AO2 PK WND 36029/0614 P0002 T00061006 $

More Conditions Fewer Conditions

Pressure 29.72 in
Visibility 1.5 miles
Clouds Scattered Clouds 800 ft
Overcast 1400 ft
Windchill 32 °F
Dew Point 29 °F
Humidity 89%
Rainfall 0.00 in
Snow Depth Not available.
UV 0 out of 12
Pollen .10 out of 12
Air Quality Not available.
Flu Activity Not available.
SPECI KPWM 270632Z 35013G23KT 1 1/2SM -SN BR SCT008 OVC014 01/M01 A2972 RMK AO2 PK WND 36029/0614 P0002 T00061006 $

More Conditions Fewer Conditions

10-Day Weather Forecast

Almanac

Astronomy

Nov. 27, 2014 Rise Set
Actual Time
Civil Twilight
Nautical Twilight
Astronomical Twilight
Moon
Length of Visible Light
Length of Day
Tomorrow will be .
, % of the Moon is Illuminated

Today's Extremes

State Highs State Lows

Community

WunderPhotos

Upload Photos

1,773,962 photos uploaded!

WunderBlogs® & News

Nearby

Air Quality

  Air Quality AQ Index Pollutant
Not available.

Snow Depth

Station Depth Elevation

Earthquake Activity

City Distance Mag. Time & Date
Minimum magnitude displayed is 2.5.

Coastal Water Temperatures

Place Temperature

Nearby Weather Stations